sensor_id;sensor_type;location;lat;lon;timestamp;temperature;humidity
55207;DHT22;41079;52.856;6.534;2022-08-01T00:00:32;17.90;99.90
55207;DHT22;41079;52.856;6.534;2022-08-01T00:02:57;17.90;99.90
55207;DHT22;41079;52.856;6.534;2022-08-01T00:05:23;17.90;99.90
55207;DHT22;41079;52.856;6.534;2022-08-01T00:07:48;17.90;99.90
55207;DHT22;41079;52.856;6.534;2022-08-01T00:10:16;17.90;99.90
55207;DHT22;41079;52.856;6.534;2022-08-01T00:12:43;17.90;99.90
55207;DHT22;41079;52.856;6.534;2022-08-01T00:15:12;17.90;99.90
55207;DHT22;41079;52.856;6.534;2022-08-01T00:17:38;17.90;99.90
55207;DHT22;41079;52.856;6.534;2022-08-01T00:20:05;17.90;99.90
55207;DHT22;41079;52.856;6.534;2022-08-01T00:22:32;17.90;99.90
55207;DHT22;41079;52.856;6.534;2022-08-01T00:24:57;17.80;99.90
55207;DHT22;41079;52.856;6.534;2022-08-01T00:27:23;17.80;99.90
55207;DHT22;41079;52.856;6.534;2022-08-01T00:29:48;17.80;99.90
55207;DHT22;41079;52.856;6.534;2022-08-01T00:32:14;17.80;99.90
55207;DHT22;41079;52.856;6.534;2022-08-01T00:34:39;17.80;99.90
55207;DHT22;41079;52.856;6.534;2022-08-01T00:37:05;17.80;99.90
55207;DHT22;41079;52.856;6.534;2022-08-01T00:39:30;17.80;99.90
55207;DHT22;41079;52.856;6.534;2022-08-01T00:41:59;17.70;99.90
55207;DHT22;41079;52.856;6.534;2022-08-01T00:44:24;17.70;99.90
55207;DHT22;41079;52.856;6.534;2022-08-01T00:46:50;17.80;99.90
55207;DHT22;41079;52.856;6.534;2022-08-01T00:49:15;17.70;99.90
55207;DHT22;41079;52.856;6.534;2022-08-01T00:51:41;17.70;99.90
55207;DHT22;41079;52.856;6.534;2022-08-01T00:54:07;17.70;99.90
55207;DHT22;41079;52.856;6.534;2022-08-01T00:56:33;17.70;99.90
55207;DHT22;41079;52.856;6.534;2022-08-01T00:58:58;17.70;99.90
55207;DHT22;41079;52.856;6.534;2022-08-01T01:01:24;17.70;99.90
55207;DHT22;41079;52.856;6.534;2022-08-01T01:03:51;17.60;99.90
55207;DHT22;41079;52.856;6.534;2022-08-01T01:06:25;17.70;99.90
55207;DHT22;41079;52.856;6.534;2022-08-01T01:11:45;17.60;99.90
55207;DHT22;41079;52.856;6.534;2022-08-01T01:14:23;17.60;99.90
55207;DHT22;41079;52.856;6.534;2022-08-01T01:16:53;17.60;99.90
55207;DHT22;41079;52.856;6.534;2022-08-01T01:19:24;17.60;99.90
55207;DHT22;41079;52.856;6.534;2022-08-01T01:22:22;17.60;99.90
55207;DHT22;41079;52.856;6.534;2022-08-01T01:27:42;17.60;99.90
55207;DHT22;41079;52.856;6.534;2022-08-01T01:30:10;17.60;99.90
55207;DHT22;41079;52.856;6.534;2022-08-01T01:32:40;17.60;99.90
55207;DHT22;41079;52.856;6.534;2022-08-01T01:35:10;17.60;99.90
55207;DHT22;41079;52.856;6.534;2022-08-01T01:37:39;17.60;99.90
55207;DHT22;41079;52.856;6.534;2022-08-01T01:40:06;17.60;99.90
55207;DHT22;41079;52.856;6.534;2022-08-01T01:42:33;17.60;99.90
55207;DHT22;41079;52.856;6.534;2022-08-01T01:45:00;17.60;99.90
55207;DHT22;41079;52.856;6.534;2022-08-01T01:47:28;17.60;99.90
55207;DHT22;41079;52.856;6.534;2022-08-01T01:49:55;17.60;99.90
55207;DHT22;41079;52.856;6.534;2022-08-01T01:52:22;17.50;99.90
55207;DHT22;41079;52.856;6.534;2022-08-01T01:54:50;17.50;99.90
55207;DHT22;41079;52.856;6.534;2022-08-01T01:57:18;17.50;99.90
55207;DHT22;41079;52.856;6.534;2022-08-01T01:59:46;17.50;99.90
55207;DHT22;41079;52.856;6.534;2022-08-01T02:02:14;17.50;99.90
55207;DHT22;41079;52.856;6.534;2022-08-01T02:04:42;17.50;99.90
55207;DHT22;41079;52.856;6.534;2022-08-01T02:07:10;17.50;99.90
55207;DHT22;41079;52.856;6.534;2022-08-01T02:09:40;17.50;99.90
55207;DHT22;41079;52.856;6.534;2022-08-01T02:12:07;17.40;99.90
55207;DHT22;41079;52.856;6.534;2022-08-01T02:14:35;17.40;99.90
55207;DHT22;41079;52.856;6.534;2022-08-01T02:17:02;17.40;99.90
55207;DHT22;41079;52.856;6.534;2022-08-01T02:19:29;17.40;99.90
55207;DHT22;41079;52.856;6.534;2022-08-01T02:21:59;17.40;99.90
55207;DHT22;41079;52.856;6.534;2022-08-01T02:24:35;17.40;99.90
55207;DHT22;41079;52.856;6.534;2022-08-01T02:27:06;17.30;99.90
55207;DHT22;41079;52.856;6.534;2022-08-01T02:29:38;17.40;99.90
55207;DHT22;41079;52.856;6.534;2022-08-01T02:32:06;17.40;99.90
55207;DHT22;41079;52.856;6.534;2022-08-01T02:34:34;17.40;99.90
55207;DHT22;41079;52.856;6.534;2022-08-01T02:37:03;17.30;99.90
55207;DHT22;41079;52.856;6.534;2022-08-01T02:39:30;17.40;99.90
55207;DHT22;41079;52.856;6.534;2022-08-01T02:42:00;17.40;99.90
55207;DHT22;41079;52.856;6.534;2022-08-01T02:44:31;17.40;99.90
55207;DHT22;41079;52.856;6.534;2022-08-01T02:47:00;17.40;99.90
55207;DHT22;41079;52.856;6.534;2022-08-01T02:49:33;17.40;99.90
55207;DHT22;41079;52.856;6.534;2022-08-01T02:52:01;17.30;99.90
55207;DHT22;41079;52.856;6.534;2022-08-01T02:54:27;17.40;99.90
55207;DHT22;41079;52.856;6.534;2022-08-01T02:56:55;17.30;99.90
55207;DHT22;41079;52.856;6.534;2022-08-01T02:59:22;17.30;99.90
55207;DHT22;41079;52.856;6.534;2022-08-01T03:01:55;17.20;99.90
55207;DHT22;41079;52.856;6.534;2022-08-01T03:04:23;17.20;99.90
55207;DHT22;41079;52.856;6.534;2022-08-01T03:06:51;17.10;99.90
55207;DHT22;41079;52.856;6.534;2022-08-01T03:09:18;17.10;99.90
55207;DHT22;41079;52.856;6.534;2022-08-01T03:11:45;17.20;99.90
55207;DHT22;41079;52.856;6.534;2022-08-01T03:14:12;17.10;99.90
55207;DHT22;41079;52.856;6.534;2022-08-01T03:16:39;17.10;99.90
55207;DHT22;41079;52.856;6.534;2022-08-01T03:19:08;17.10;99.90
55207;DHT22;41079;52.856;6.534;2022-08-01T03:21:35;17.10;99.90
55207;DHT22;41079;52.856;6.534;2022-08-01T03:24:03;17.10;99.90
55207;DHT22;41079;52.856;6.534;2022-08-01T03:26:31;17.00;99.90
55207;DHT22;41079;52.856;6.534;2022-08-01T03:29:03;17.00;99.90
55207;DHT22;41079;52.856;6.534;2022-08-01T03:31:36;17.10;99.90
55207;DHT22;41079;52.856;6.534;2022-08-01T03:34:04;17.10;99.90
55207;DHT22;41079;52.856;6.534;2022-08-01T03:36:32;17.00;99.90
55207;DHT22;41079;52.856;6.534;2022-08-01T03:39:02;17.00;99.90
55207;DHT22;41079;52.856;6.534;2022-08-01T03:41:33;17.00;99.90
55207;DHT22;41079;52.856;6.534;2022-08-01T03:44:06;17.00;99.90
55207;DHT22;41079;52.856;6.534;2022-08-01T03:46:36;17.00;99.90
55207;DHT22;41079;52.856;6.534;2022-08-01T03:49:07;17.00;99.90
55207;DHT22;41079;52.856;6.534;2022-08-01T03:51:37;16.90;99.90
55207;DHT22;41079;52.856;6.534;2022-08-01T03:54:04;16.90;99.90
55207;DHT22;41079;52.856;6.534;2022-08-01T03:56:31;16.90;99.90
55207;DHT22;41079;52.856;6.534;2022-08-01T03:58:59;16.90;99.90
55207;DHT22;41079;52.856;6.534;2022-08-01T04:01:25;16.90;99.90
55207;DHT22;41079;52.856;6.534;2022-08-01T04:03:52;16.90;99.90
55207;DHT22;41079;52.856;6.534;2022-08-01T04:06:18;16.90;99.90
55207;DHT22;41079;52.856;6.534;2022-08-01T04:08:43;16.90;99.90
55207;DHT22;41079;52.856;6.534;2022-08-01T04:11:21;16.90;99.90
55207;DHT22;41079;52.856;6.534;2022-08-01T04:13:47;16.90;99.90
55207;DHT22;41079;52.856;6.534;2022-08-01T04:16:13;16.80;99.90
55207;DHT22;41079;52.856;6.534;2022-08-01T04:18:39;16.80;99.90
55207;DHT22;41079;52.856;6.534;2022-08-01T04:21:05;16.80;99.90
55207;DHT22;41079;52.856;6.534;2022-08-01T04:23:31;16.80;99.90
55207;DHT22;41079;52.856;6.534;2022-08-01T04:26:02;16.80;99.90
55207;DHT22;41079;52.856;6.534;2022-08-01T04:28:31;16.90;99.90
55207;DHT22;41079;52.856;6.534;2022-08-01T04:30:58;16.90;99.90
55207;DHT22;41079;52.856;6.534;2022-08-01T04:33:26;16.90;99.90
55207;DHT22;41079;52.856;6.534;2022-08-01T04:35:54;16.80;99.90
55207;DHT22;41079;52.856;6.534;2022-08-01T04:38:24;16.80;99.90
55207;DHT22;41079;52.856;6.534;2022-08-01T04:40:52;16.80;99.90
55207;DHT22;41079;52.856;6.534;2022-08-01T04:43:18;16.80;99.90
55207;DHT22;41079;52.856;6.534;2022-08-01T04:45:45;16.90;99.90
55207;DHT22;41079;52.856;6.534;2022-08-01T04:48:16;16.90;99.90
55207;DHT22;41079;52.856;6.534;2022-08-01T04:50:45;16.80;99.90
55207;DHT22;41079;52.856;6.534;2022-08-01T04:53:18;16.90;99.90
55207;DHT22;41079;52.856;6.534;2022-08-01T04:55:44;16.90;99.90
55207;DHT22;41079;52.856;6.534;2022-08-01T04:58:11;16.80;99.90
55207;DHT22;41079;52.856;6.534;2022-08-01T05:00:37;16.80;99.90
55207;DHT22;41079;52.856;6.534;2022-08-01T05:03:03;16.80;99.90
55207;DHT22;41079;52.856;6.534;2022-08-01T05:05:29;16.80;99.90
55207;DHT22;41079;52.856;6.534;2022-08-01T05:07:56;16.80;99.90
55207;DHT22;41079;52.856;6.534;2022-08-01T05:10:21;16.70;99.90
55207;DHT22;41079;52.856;6.534;2022-08-01T05:12:47;16.70;99.90
55207;DHT22;41079;52.856;6.534;2022-08-01T05:15:12;16.80;99.90
55207;DHT22;41079;52.856;6.534;2022-08-01T05:17:38;16.70;99.90
55207;DHT22;41079;52.856;6.534;2022-08-01T05:20:04;16.70;99.90
55207;DHT22;41079;52.856;6.534;2022-08-01T05:22:31;16.70;99.90
55207;DHT22;41079;52.856;6.534;2022-08-01T05:24:57;16.70;99.90
55207;DHT22;41079;52.856;6.534;2022-08-01T05:27:22;16.70;99.90
55207;DHT22;41079;52.856;6.534;2022-08-01T05:29:48;16.60;99.90
55207;DHT22;41079;52.856;6.534;2022-08-01T05:32:13;16.70;99.90
55207;DHT22;41079;52.856;6.534;2022-08-01T05:34:39;16.60;99.90
55207;DHT22;41079;52.856;6.534;2022-08-01T05:37:05;16.70;99.90
55207;DHT22;41079;52.856;6.534;2022-08-01T05:39:30;16.70;99.90
55207;DHT22;41079;52.856;6.534;2022-08-01T05:41:56;16.70;99.90
55207;DHT22;41079;52.856;6.534;2022-08-01T05:44:21;16.70;99.90
55207;DHT22;41079;52.856;6.534;2022-08-01T05:46:47;16.70;99.90
55207;DHT22;41079;52.856;6.534;2022-08-01T05:49:12;16.70;99.90
55207;DHT22;41079;52.856;6.534;2022-08-01T05:51:38;16.70;99.90
55207;DHT22;41079;52.856;6.534;2022-08-01T05:54:04;16.70;99.90
55207;DHT22;41079;52.856;6.534;2022-08-01T05:56:29;16.70;99.90
55207;DHT22;41079;52.856;6.534;2022-08-01T05:58:55;16.70;99.90
55207;DHT22;41079;52.856;6.534;2022-08-01T06:01:21;16.70;99.90
55207;DHT22;41079;52.856;6.534;2022-08-01T06:03:46;16.70;99.90
55207;DHT22;41079;52.856;6.534;2022-08-01T06:06:12;16.80;99.90
55207;DHT22;41079;52.856;6.534;2022-08-01T06:08:39;16.80;99.90
55207;DHT22;41079;52.856;6.534;2022-08-01T06:11:05;16.80;99.90
55207;DHT22;41079;52.856;6.534;2022-08-01T06:13:30;16.70;99.90
55207;DHT22;41079;52.856;6.534;2022-08-01T06:15:56;16.90;99.90
55207;DHT22;41079;52.856;6.534;2022-08-01T06:18:22;16.90;99.90
55207;DHT22;41079;52.856;6.534;2022-08-01T06:20:48;17.00;99.90
55207;DHT22;41079;52.856;6.534;2022-08-01T06:23:13;17.00;99.90
55207;DHT22;41079;52.856;6.534;2022-08-01T06:25:42;17.10;99.90
55207;DHT22;41079;52.856;6.534;2022-08-01T06:28:07;17.10;99.90
55207;DHT22;41079;52.856;6.534;2022-08-01T06:30:33;17.20;99.90
55207;DHT22;41079;52.856;6.534;2022-08-01T06:32:59;17.20;99.90
55207;DHT22;41079;52.856;6.534;2022-08-01T06:35:26;17.20;99.90
55207;DHT22;41079;52.856;6.534;2022-08-01T06:37:52;17.20;99.90
55207;DHT22;41079;52.856;6.534;2022-08-01T06:40:18;17.10;99.90
55207;DHT22;41079;52.856;6.534;2022-08-01T06:42:44;17.20;99.90
55207;DHT22;41079;52.856;6.534;2022-08-01T06:45:11;17.20;99.90
55207;DHT22;41079;52.856;6.534;2022-08-01T06:47:41;17.20;99.90
55207;DHT22;41079;52.856;6.534;2022-08-01T06:50:08;17.20;99.90
55207;DHT22;41079;52.856;6.534;2022-08-01T06:52:35;17.20;99.90
55207;DHT22;41079;52.856;6.534;2022-08-01T06:55:01;17.10;99.90
55207;DHT22;41079;52.856;6.534;2022-08-01T06:57:27;17.20;99.90
55207;DHT22;41079;52.856;6.534;2022-08-01T06:59:53;17.20;99.90
55207;DHT22;41079;52.856;6.534;2022-08-01T07:02:18;17.20;99.90
55207;DHT22;41079;52.856;6.534;2022-08-01T07:04:44;17.10;99.90
55207;DHT22;41079;52.856;6.534;2022-08-01T07:07:10;17.10;99.90
55207;DHT22;41079;52.856;6.534;2022-08-01T07:09:35;17.20;99.90
55207;DHT22;41079;52.856;6.534;2022-08-01T07:12:02;17.10;99.90
55207;DHT22;41079;52.856;6.534;2022-08-01T07:14:28;17.20;99.90
55207;DHT22;41079;52.856;6.534;2022-08-01T07:16:53;17.20;99.90
55207;DHT22;41079;52.856;6.534;2022-08-01T07:19:19;17.30;99.90
55207;DHT22;41079;52.856;6.534;2022-08-01T07:21:44;17.30;99.90
55207;DHT22;41079;52.856;6.534;2022-08-01T07:24:12;17.30;99.90
55207;DHT22;41079;52.856;6.534;2022-08-01T07:26:46;17.40;99.90
55207;DHT22;41079;52.856;6.534;2022-08-01T07:29:12;17.50;99.90
55207;DHT22;41079;52.856;6.534;2022-08-01T07:31:37;17.50;99.90
55207;DHT22;41079;52.856;6.534;2022-08-01T07:34:03;17.50;99.90
55207;DHT22;41079;52.856;6.534;2022-08-01T07:36:29;17.60;99.90
55207;DHT22;41079;52.856;6.534;2022-08-01T07:38:54;17.70;99.90
55207;DHT22;41079;52.856;6.534;2022-08-01T07:41:20;17.50;99.90
55207;DHT22;41079;52.856;6.534;2022-08-01T07:43:46;17.50;99.90
55207;DHT22;41079;52.856;6.534;2022-08-01T07:46:12;17.60;99.90
55207;DHT22;41079;52.856;6.534;2022-08-01T07:48:38;17.70;99.90
55207;DHT22;41079;52.856;6.534;2022-08-01T07:51:03;17.70;99.90
55207;DHT22;41079;52.856;6.534;2022-08-01T07:53:29;17.90;99.90
55207;DHT22;41079;52.856;6.534;2022-08-01T07:55:55;18.00;99.90
55207;DHT22;41079;52.856;6.534;2022-08-01T07:58:20;18.10;99.90
55207;DHT22;41079;52.856;6.534;2022-08-01T08:00:46;18.30;99.90
55207;DHT22;41079;52.856;6.534;2022-08-01T08:03:11;18.20;99.90
55207;DHT22;41079;52.856;6.534;2022-08-01T08:05:37;18.30;99.90
55207;DHT22;41079;52.856;6.534;2022-08-01T08:08:07;18.40;99.90
55207;DHT22;41079;52.856;6.534;2022-08-01T08:10:33;18.50;99.90
55207;DHT22;41079;52.856;6.534;2022-08-01T08:12:59;18.60;99.90
55207;DHT22;41079;52.856;6.534;2022-08-01T08:15:26;18.70;99.90
55207;DHT22;41079;52.856;6.534;2022-08-01T08:17:51;18.90;99.90
55207;DHT22;41079;52.856;6.534;2022-08-01T08:20:17;19.00;99.90
55207;DHT22;41079;52.856;6.534;2022-08-01T08:22:42;19.30;99.90
55207;DHT22;41079;52.856;6.534;2022-08-01T08:25:08;19.60;99.90
55207;DHT22;41079;52.856;6.534;2022-08-01T08:27:35;19.70;99.90
55207;DHT22;41079;52.856;6.534;2022-08-01T08:30:01;19.80;99.90
55207;DHT22;41079;52.856;6.534;2022-08-01T08:32:27;19.90;99.90
55207;DHT22;41079;52.856;6.534;2022-08-01T08:34:53;20.10;99.90
55207;DHT22;41079;52.856;6.534;2022-08-01T08:37:18;20.40;99.90
55207;DHT22;41079;52.856;6.534;2022-08-01T08:39:44;20.80;99.90
55207;DHT22;41079;52.856;6.534;2022-08-01T08:42:10;20.90;99.90
55207;DHT22;41079;52.856;6.534;2022-08-01T08:44:36;20.90;99.90
55207;DHT22;41079;52.856;6.534;2022-08-01T08:47:05;21.00;99.90
55207;DHT22;41079;52.856;6.534;2022-08-01T08:49:31;20.90;99.90
55207;DHT22;41079;52.856;6.534;2022-08-01T08:51:59;20.60;99.90
55207;DHT22;41079;52.856;6.534;2022-08-01T08:54:26;20.30;99.90
55207;DHT22;41079;52.856;6.534;2022-08-01T08:56:53;20.30;99.90
55207;DHT22;41079;52.856;6.534;2022-08-01T08:59:21;20.30;99.90
55207;DHT22;41079;52.856;6.534;2022-08-01T09:01:49;20.30;99.90
55207;DHT22;41079;52.856;6.534;2022-08-01T09:04:15;20.30;99.90
55207;DHT22;41079;52.856;6.534;2022-08-01T09:06:41;20.50;99.90
55207;DHT22;41079;52.856;6.534;2022-08-01T09:09:07;20.60;99.90
55207;DHT22;41079;52.856;6.534;2022-08-01T09:11:34;20.70;99.90
55207;DHT22;41079;52.856;6.534;2022-08-01T09:14:17;20.60;99.90
55207;DHT22;41079;52.856;6.534;2022-08-01T09:17:00;20.50;99.90
55207;DHT22;41079;52.856;6.534;2022-08-01T09:19:36;20.30;99.90
55207;DHT22;41079;52.856;6.534;2022-08-01T09:22:05;20.40;99.90
55207;DHT22;41079;52.856;6.534;2022-08-01T09:24:32;20.70;99.90
55207;DHT22;41079;52.856;6.534;2022-08-01T09:26:59;21.20;99.90
55207;DHT22;41079;52.856;6.534;2022-08-01T09:29:28;21.80;99.90
55207;DHT22;41079;52.856;6.534;2022-08-01T09:31:55;22.10;99.90
55207;DHT22;41079;52.856;6.534;2022-08-01T09:34:27;22.30;99.90
55207;DHT22;41079;52.856;6.534;2022-08-01T09:36:58;22.30;99.90
55207;DHT22;41079;52.856;6.534;2022-08-01T09:39:26;22.20;99.90
55207;DHT22;41079;52.856;6.534;2022-08-01T09:41:53;22.10;99.90
55207;DHT22;41079;52.856;6.534;2022-08-01T09:44:19;22.00;99.90
55207;DHT22;41079;52.856;6.534;2022-08-01T09:47:01;22.10;99.90
55207;DHT22;41079;52.856;6.534;2022-08-01T09:49:32;22.40;99.90
55207;DHT22;41079;52.856;6.534;2022-08-01T09:51:58;22.60;99.90
55207;DHT22;41079;52.856;6.534;2022-08-01T09:54:30;22.40;99.90
55207;DHT22;41079;52.856;6.534;2022-08-01T09:57:07;22.30;99.90
55207;DHT22;41079;52.856;6.534;2022-08-01T09:59:37;22.30;99.90
55207;DHT22;41079;52.856;6.534;2022-08-01T10:02:05;22.20;99.90
55207;DHT22;41079;52.856;6.534;2022-08-01T10:04:33;22.10;99.90
55207;DHT22;41079;52.856;6.534;2022-08-01T10:07:07;22.10;99.60
55207;DHT22;41079;52.856;6.534;2022-08-01T10:09:34;22.10;99.60
55207;DHT22;41079;52.856;6.534;2022-08-01T10:12:01;22.10;99.90
55207;DHT22;41079;52.856;6.534;2022-08-01T10:14:27;22.30;99.90
55207;DHT22;41079;52.856;6.534;2022-08-01T10:16:57;22.40;98.90
55207;DHT22;41079;52.856;6.534;2022-08-01T10:19:28;22.40;95.10
55207;DHT22;41079;52.856;6.534;2022-08-01T10:21:55;22.30;95.80
55207;DHT22;41079;52.856;6.534;2022-08-01T10:24:22;22.20;96.70
55207;DHT22;41079;52.856;6.534;2022-08-01T10:26:51;22.30;98.10
55207;DHT22;41079;52.856;6.534;2022-08-01T10:29:18;22.40;98.00
55207;DHT22;41079;52.856;6.534;2022-08-01T10:31:46;22.50;95.20
55207;DHT22;41079;52.856;6.534;2022-08-01T10:34:13;22.30;97.10
55207;DHT22;41079;52.856;6.534;2022-08-01T10:36:42;22.30;95.90
55207;DHT22;41079;52.856;6.534;2022-08-01T10:39:10;22.30;95.50
55207;DHT22;41079;52.856;6.534;2022-08-01T10:41:38;22.40;94.50
55207;DHT22;41079;52.856;6.534;2022-08-01T10:44:08;22.30;93.00
55207;DHT22;41079;52.856;6.534;2022-08-01T10:46:38;22.30;95.40
55207;DHT22;41079;52.856;6.534;2022-08-01T10:49:11;22.30;95.40
55207;DHT22;41079;52.856;6.534;2022-08-01T10:51:39;22.30;94.80
55207;DHT22;41079;52.856;6.534;2022-08-01T10:54:06;22.10;94.80
55207;DHT22;41079;52.856;6.534;2022-08-01T10:56:47;22.10;95.60
55207;DHT22;41079;52.856;6.534;2022-08-01T10:59:27;22.30;93.80
55207;DHT22;41079;52.856;6.534;2022-08-01T11:02:04;22.30;93.30
55207;DHT22;41079;52.856;6.534;2022-08-01T11:04:56;22.30;93.50
55207;DHT22;41079;52.856;6.534;2022-08-01T11:07:44;22.50;94.70
55207;DHT22;41079;52.856;6.534;2022-08-01T11:10:33;22.80;91.70
55207;DHT22;41079;52.856;6.534;2022-08-01T11:13:00;22.90;92.50
55207;DHT22;41079;52.856;6.534;2022-08-01T11:15:28;22.80;93.20
55207;DHT22;41079;52.856;6.534;2022-08-01T11:17:55;22.80;93.40
55207;DHT22;41079;52.856;6.534;2022-08-01T11:20:31;22.90;94.20
55207;DHT22;41079;52.856;6.534;2022-08-01T11:28:17;23.20;91.60
55207;DHT22;41079;52.856;6.534;2022-08-01T11:30:47;23.20;88.90
55207;DHT22;41079;52.856;6.534;2022-08-01T11:33:16;23.10;91.30
55207;DHT22;41079;52.856;6.534;2022-08-01T11:36:20;23.10;92.00
55207;DHT22;41079;52.856;6.534;2022-08-01T11:41:31;23.00;92.30
55207;DHT22;41079;52.856;6.534;2022-08-01T11:44:09;22.90;92.30
55207;DHT22;41079;52.856;6.534;2022-08-01T11:46:50;23.00;91.80
55207;DHT22;41079;52.856;6.534;2022-08-01T11:49:32;23.00;91.80
55207;DHT22;41079;52.856;6.534;2022-08-01T11:54:41;23.00;91.20
55207;DHT22;41079;52.856;6.534;2022-08-01T11:57:08;23.10;91.70
55207;DHT22;41079;52.856;6.534;2022-08-01T12:02:03;23.20;88.30
55207;DHT22;41079;52.856;6.534;2022-08-01T12:05:05;22.90;90.60
55207;DHT22;41079;52.856;6.534;2022-08-01T12:07:32;22.80;90.70
55207;DHT22;41079;52.856;6.534;2022-08-01T12:10:01;22.80;91.50
55207;DHT22;41079;52.856;6.534;2022-08-01T12:12:27;22.60;88.20
55207;DHT22;41079;52.856;6.534;2022-08-01T12:14:55;22.60;88.20
55207;DHT22;41079;52.856;6.534;2022-08-01T12:17:45;22.50;89.10
55207;DHT22;41079;52.856;6.534;2022-08-01T12:20:16;22.60;89.10
55207;DHT22;41079;52.856;6.534;2022-08-01T12:22:44;22.70;90.70
55207;DHT22;41079;52.856;6.534;2022-08-01T12:25:11;22.70;88.50
55207;DHT22;41079;52.856;6.534;2022-08-01T12:27:38;22.60;90.80
55207;DHT22;41079;52.856;6.534;2022-08-01T12:30:12;22.60;91.00
55207;DHT22;41079;52.856;6.534;2022-08-01T12:32:39;22.70;85.60
55207;DHT22;41079;52.856;6.534;2022-08-01T12:37:38;22.20;86.70
55207;DHT22;41079;52.856;6.534;2022-08-01T12:42:40;22.30;87.10
55207;DHT22;41079;52.856;6.534;2022-08-01T12:45:08;22.40;86.50
55207;DHT22;41079;52.856;6.534;2022-08-01T12:47:38;22.60;85.40
55207;DHT22;41079;52.856;6.534;2022-08-01T12:50:16;22.80;86.30
55207;DHT22;41079;52.856;6.534;2022-08-01T12:52:42;23.20;86.40
55207;DHT22;41079;52.856;6.534;2022-08-01T12:55:10;23.20;81.40
55207;DHT22;41079;52.856;6.534;2022-08-01T12:57:42;22.80;83.60
55207;DHT22;41079;52.856;6.534;2022-08-01T13:02:46;22.40;83.10
55207;DHT22;41079;52.856;6.534;2022-08-01T13:05:15;22.60;87.30
55207;DHT22;41079;52.856;6.534;2022-08-01T13:07:49;23.10;82.60
55207;DHT22;41079;52.856;6.534;2022-08-01T13:10:24;23.40;81.80
55207;DHT22;41079;52.856;6.534;2022-08-01T13:12:51;23.50;76.90
55207;DHT22;41079;52.856;6.534;2022-08-01T13:15:21;23.50;78.00
55207;DHT22;41079;52.856;6.534;2022-08-01T13:17:48;23.50;81.20
55207;DHT22;41079;52.856;6.534;2022-08-01T13:20:29;23.70;81.70
55207;DHT22;41079;52.856;6.534;2022-08-01T13:22:55;24.00;80.30
55207;DHT22;41079;52.856;6.534;2022-08-01T13:25:20;24.00;79.20
55207;DHT22;41079;52.856;6.534;2022-08-01T13:27:46;23.90;74.80
55207;DHT22;41079;52.856;6.534;2022-08-01T13:30:18;23.70;75.30
55207;DHT22;41079;52.856;6.534;2022-08-01T13:33:00;23.50;72.00
55207;DHT22;41079;52.856;6.534;2022-08-01T13:35:26;23.00;74.20
55207;DHT22;41079;52.856;6.534;2022-08-01T13:37:52;22.90;76.70
55207;DHT22;41079;52.856;6.534;2022-08-01T13:40:26;23.10;78.00
55207;DHT22;41079;52.856;6.534;2022-08-01T13:42:53;23.50;79.30
55207;DHT22;41079;52.856;6.534;2022-08-01T13:45:19;23.90;79.80
55207;DHT22;41079;52.856;6.534;2022-08-01T13:47:45;24.20;76.50
55207;DHT22;41079;52.856;6.534;2022-08-01T13:50:10;24.50;73.70
55207;DHT22;41079;52.856;6.534;2022-08-01T13:52:36;24.90;75.70
55207;DHT22;41079;52.856;6.534;2022-08-01T13:55:02;25.30;74.30
55207;DHT22;41079;52.856;6.534;2022-08-01T13:57:28;25.40;71.10
55207;DHT22;41079;52.856;6.534;2022-08-01T13:59:54;25.40;69.20
55207;DHT22;41079;52.856;6.534;2022-08-01T14:02:20;25.20;69.70
55207;DHT22;41079;52.856;6.534;2022-08-01T14:04:45;25.30;70.00
55207;DHT22;41079;52.856;6.534;2022-08-01T14:07:11;25.40;70.10
55207;DHT22;41079;52.856;6.534;2022-08-01T14:09:37;25.20;69.90
55207;DHT22;41079;52.856;6.534;2022-08-01T14:12:03;25.00;70.50
55207;DHT22;41079;52.856;6.534;2022-08-01T14:14:29;24.60;71.30
55207;DHT22;41079;52.856;6.534;2022-08-01T14:16:55;24.20;71.40
55207;DHT22;41079;52.856;6.534;2022-08-01T14:19:21;24.10;72.90
55207;DHT22;41079;52.856;6.534;2022-08-01T14:21:47;24.20;71.60
55207;DHT22;41079;52.856;6.534;2022-08-01T14:24:12;24.40;72.10
55207;DHT22;41079;52.856;6.534;2022-08-01T14:26:38;24.90;70.30
55207;DHT22;41079;52.856;6.534;2022-08-01T14:29:03;24.90;71.60
55207;DHT22;41079;52.856;6.534;2022-08-01T14:31:29;24.70;67.70
55207;DHT22;41079;52.856;6.534;2022-08-01T14:33:55;24.30;71.30
55207;DHT22;41079;52.856;6.534;2022-08-01T14:36:21;24.40;70.10
55207;DHT22;41079;52.856;6.534;2022-08-01T14:38:46;24.40;71.10
55207;DHT22;41079;52.856;6.534;2022-08-01T14:41:13;24.50;64.00
55207;DHT22;41079;52.856;6.534;2022-08-01T14:43:38;24.10;67.40
55207;DHT22;41079;52.856;6.534;2022-08-01T14:46:04;24.00;69.60
55207;DHT22;41079;52.856;6.534;2022-08-01T14:48:30;23.90;67.90
55207;DHT22;41079;52.856;6.534;2022-08-01T14:50:56;23.60;67.10
55207;DHT22;41079;52.856;6.534;2022-08-01T14:53:21;23.30;67.80
55207;DHT22;41079;52.856;6.534;2022-08-01T14:55:47;23.00;69.20
55207;DHT22;41079;52.856;6.534;2022-08-01T14:58:13;22.80;70.90
55207;DHT22;41079;52.856;6.534;2022-08-01T15:00:38;22.70;70.00
55207;DHT22;41079;52.856;6.534;2022-08-01T15:03:04;22.70;72.40
55207;DHT22;41079;52.856;6.534;2022-08-01T15:05:29;22.70;71.80
55207;DHT22;41079;52.856;6.534;2022-08-01T15:07:56;22.50;70.90
55207;DHT22;41079;52.856;6.534;2022-08-01T15:10:22;22.30;73.40
55207;DHT22;41079;52.856;6.534;2022-08-01T15:12:48;22.30;76.10
55207;DHT22;41079;52.856;6.534;2022-08-01T15:15:14;22.40;75.50
55207;DHT22;41079;52.856;6.534;2022-08-01T15:17:39;22.50;74.80
55207;DHT22;41079;52.856;6.534;2022-08-01T15:20:07;22.60;75.50
55207;DHT22;41079;52.856;6.534;2022-08-01T15:22:33;22.80;73.00
55207;DHT22;41079;52.856;6.534;2022-08-01T15:25:00;22.90;73.70
55207;DHT22;41079;52.856;6.534;2022-08-01T15:27:27;23.20;74.00
55207;DHT22;41079;52.856;6.534;2022-08-01T15:29:53;23.30;70.60
55207;DHT22;41079;52.856;6.534;2022-08-01T15:32:19;23.30;70.90
55207;DHT22;41079;52.856;6.534;2022-08-01T15:34:45;23.40;70.80
55207;DHT22;41079;52.856;6.534;2022-08-01T15:37:11;23.50;68.90
55207;DHT22;41079;52.856;6.534;2022-08-01T15:39:37;23.50;70.80
55207;DHT22;41079;52.856;6.534;2022-08-01T15:42:06;23.70;71.60
55207;DHT22;41079;52.856;6.534;2022-08-01T15:44:32;23.90;70.00
55207;DHT22;41079;52.856;6.534;2022-08-01T15:46:59;24.10;70.80
55207;DHT22;41079;52.856;6.534;2022-08-01T15:49:25;24.20;70.70
55207;DHT22;41079;52.856;6.534;2022-08-01T15:51:51;24.30;68.90
55207;DHT22;41079;52.856;6.534;2022-08-01T15:54:17;24.10;69.70
55207;DHT22;41079;52.856;6.534;2022-08-01T15:56:43;24.00;67.60
55207;DHT22;41079;52.856;6.534;2022-08-01T15:59:09;23.80;69.00
55207;DHT22;41079;52.856;6.534;2022-08-01T16:01:35;23.80;69.40